sensor_id;sensor_type;location;lat;lon;timestamp;temperature;humidity
10968;DHT22;5536;49.602;10.980;2023-05-24T00:00:13;12.30;99.90
10968;DHT22;5536;49.602;10.980;2023-05-24T00:02:41;12.30;99.90
10968;DHT22;5536;49.602;10.980;2023-05-24T00:05:09;12.30;99.90
10968;DHT22;5536;49.602;10.980;2023-05-24T00:07:36;12.30;99.90
10968;DHT22;5536;49.602;10.980;2023-05-24T00:10:04;12.30;99.90
10968;DHT22;5536;49.602;10.980;2023-05-24T00:12:31;12.30;99.90
10968;DHT22;5536;49.602;10.980;2023-05-24T00:14:59;12.30;99.90
10968;DHT22;5536;49.602;10.980;2023-05-24T00:17:26;12.30;99.90
10968;DHT22;5536;49.602;10.980;2023-05-24T00:19:54;12.30;99.90
10968;DHT22;5536;49.602;10.980;2023-05-24T00:22:23;12.20;99.90
10968;DHT22;5536;49.602;10.980;2023-05-24T00:24:50;12.30;99.90
10968;DHT22;5536;49.602;10.980;2023-05-24T00:27:17;12.30;99.90
10968;DHT22;5536;49.602;10.980;2023-05-24T00:29:44;12.20;99.90
10968;DHT22;5536;49.602;10.980;2023-05-24T00:32:11;12.10;99.90
10968;DHT22;5536;49.602;10.980;2023-05-24T00:34:37;12.20;99.90
10968;DHT22;5536;49.602;10.980;2023-05-24T00:37:05;12.10;99.90
10968;DHT22;5536;49.602;10.980;2023-05-24T00:39:33;12.10;99.90
10968;DHT22;5536;49.602;10.980;2023-05-24T00:42:01;11.90;99.90
10968;DHT22;5536;49.602;10.980;2023-05-24T00:44:28;11.90;99.90
10968;DHT22;5536;49.602;10.980;2023-05-24T00:46:55;11.80;99.90
10968;DHT22;5536;49.602;10.980;2023-05-24T00:49:22;11.80;99.90
10968;DHT22;5536;49.602;10.980;2023-05-24T00:51:50;11.70;99.90
10968;DHT22;5536;49.602;10.980;2023-05-24T00:54:18;11.60;99.90
10968;DHT22;5536;49.602;10.980;2023-05-24T00:56:47;11.60;99.90
10968;DHT22;5536;49.602;10.980;2023-05-24T00:59:14;11.60;99.90
10968;DHT22;5536;49.602;10.980;2023-05-24T01:01:41;11.60;99.90
10968;DHT22;5536;49.602;10.980;2023-05-24T01:04:11;11.60;99.90
10968;DHT22;5536;49.602;10.980;2023-05-24T01:06:46;11.50;99.90
10968;DHT22;5536;49.602;10.980;2023-05-24T01:09:22;11.40;99.90
10968;DHT22;5536;49.602;10.980;2023-05-24T01:12:03;11.50;99.90
10968;DHT22;5536;49.602;10.980;2023-05-24T01:14:38;11.60;99.90
10968;DHT22;5536;49.602;10.980;2023-05-24T01:17:13;11.60;99.90
10968;DHT22;5536;49.602;10.980;2023-05-24T01:19:51;11.50;99.90
10968;DHT22;5536;49.602;10.980;2023-05-24T01:22:39;11.60;99.90
10968;DHT22;5536;49.602;10.980;2023-05-24T01:25:13;11.60;99.90
10968;DHT22;5536;49.602;10.980;2023-05-24T01:27:44;11.70;99.90
10968;DHT22;5536;49.602;10.980;2023-05-24T01:30:13;11.60;99.90
10968;DHT22;5536;49.602;10.980;2023-05-24T01:32:40;11.60;99.90
10968;DHT22;5536;49.602;10.980;2023-05-24T01:35:08;11.50;99.90
10968;DHT22;5536;49.602;10.980;2023-05-24T01:37:35;11.60;99.90
10968;DHT22;5536;49.602;10.980;2023-05-24T01:40:03;11.60;99.90
10968;DHT22;5536;49.602;10.980;2023-05-24T01:42:35;11.40;99.90
10968;DHT22;5536;49.602;10.980;2023-05-24T01:45:15;11.40;99.90
10968;DHT22;5536;49.602;10.980;2023-05-24T01:47:55;11.40;99.90
10968;DHT22;5536;49.602;10.980;2023-05-24T01:50:27;11.50;99.90
10968;DHT22;5536;49.602;10.980;2023-05-24T01:52:58;11.50;99.90
10968;DHT22;5536;49.602;10.980;2023-05-24T01:55:30;11.50;99.90
10968;DHT22;5536;49.602;10.980;2023-05-24T01:58:01;11.40;99.90
10968;DHT22;5536;49.602;10.980;2023-05-24T02:00:30;11.50;99.90
10968;DHT22;5536;49.602;10.980;2023-05-24T02:02:58;11.40;99.90
10968;DHT22;5536;49.602;10.980;2023-05-24T02:05:26;11.30;99.90
10968;DHT22;5536;49.602;10.980;2023-05-24T02:07:54;11.50;99.90
10968;DHT22;5536;49.602;10.980;2023-05-24T02:10:21;11.40;99.90
10968;DHT22;5536;49.602;10.980;2023-05-24T02:12:48;11.40;99.90
10968;DHT22;5536;49.602;10.980;2023-05-24T02:15:15;11.50;99.90
10968;DHT22;5536;49.602;10.980;2023-05-24T02:17:43;11.40;99.90
10968;DHT22;5536;49.602;10.980;2023-05-24T02:20:11;11.30;99.90
10968;DHT22;5536;49.602;10.980;2023-05-24T02:22:39;11.30;99.90
10968;DHT22;5536;49.602;10.980;2023-05-24T02:25:07;11.30;99.90
10968;DHT22;5536;49.602;10.980;2023-05-24T02:27:34;11.30;99.90
10968;DHT22;5536;49.602;10.980;2023-05-24T02:30:01;11.30;99.90
10968;DHT22;5536;49.602;10.980;2023-05-24T02:32:28;11.20;99.90
10968;DHT22;5536;49.602;10.980;2023-05-24T02:34:57;11.20;99.90
10968;DHT22;5536;49.602;10.980;2023-05-24T02:37:26;11.20;99.90
10968;DHT22;5536;49.602;10.980;2023-05-24T02:39:53;11.30;99.90
10968;DHT22;5536;49.602;10.980;2023-05-24T02:42:20;11.30;99.90
10968;DHT22;5536;49.602;10.980;2023-05-24T02:44:47;11.20;99.90
10968;DHT22;5536;49.602;10.980;2023-05-24T02:47:17;11.30;99.90
10968;DHT22;5536;49.602;10.980;2023-05-24T02:49:44;11.20;99.90
10968;DHT22;5536;49.602;10.980;2023-05-24T02:52:13;11.30;99.90
10968;DHT22;5536;49.602;10.980;2023-05-24T02:54:40;11.30;99.90
10968;DHT22;5536;49.602;10.980;2023-05-24T02:57:07;11.30;99.90
10968;DHT22;5536;49.602;10.980;2023-05-24T02:59:34;11.30;99.90
10968;DHT22;5536;49.602;10.980;2023-05-24T03:02:01;11.20;99.90
10968;DHT22;5536;49.602;10.980;2023-05-24T03:04:29;11.20;99.90
10968;DHT22;5536;49.602;10.980;2023-05-24T03:06:56;11.10;99.90
10968;DHT22;5536;49.602;10.980;2023-05-24T03:09:24;11.10;99.90
10968;DHT22;5536;49.602;10.980;2023-05-24T03:11:52;11.20;99.90
10968;DHT22;5536;49.602;10.980;2023-05-24T03:14:19;11.10;99.90
10968;DHT22;5536;49.602;10.980;2023-05-24T03:16:47;11.00;99.90
10968;DHT22;5536;49.602;10.980;2023-05-24T03:19:14;11.00;99.90
10968;DHT22;5536;49.602;10.980;2023-05-24T03:21:42;11.00;99.90
10968;DHT22;5536;49.602;10.980;2023-05-24T03:24:10;11.00;99.90
10968;DHT22;5536;49.602;10.980;2023-05-24T03:26:39;11.00;99.90
10968;DHT22;5536;49.602;10.980;2023-05-24T03:29:07;10.90;99.90
10968;DHT22;5536;49.602;10.980;2023-05-24T03:31:34;10.90;99.90
10968;DHT22;5536;49.602;10.980;2023-05-24T03:34:01;10.90;99.90
10968;DHT22;5536;49.602;10.980;2023-05-24T03:36:28;11.00;99.90
10968;DHT22;5536;49.602;10.980;2023-05-24T03:38:55;11.00;99.90
10968;DHT22;5536;49.602;10.980;2023-05-24T03:41:23;11.00;99.90
10968;DHT22;5536;49.602;10.980;2023-05-24T03:43:53;11.00;99.90
10968;DHT22;5536;49.602;10.980;2023-05-24T03:46:20;11.00;99.90
10968;DHT22;5536;49.602;10.980;2023-05-24T03:48:47;11.00;99.90
10968;DHT22;5536;49.602;10.980;2023-05-24T03:51:15;10.90;99.90
10968;DHT22;5536;49.602;10.980;2023-05-24T03:53:42;10.90;99.90
10968;DHT22;5536;49.602;10.980;2023-05-24T03:56:09;11.00;99.90
10968;DHT22;5536;49.602;10.980;2023-05-24T03:58:36;10.90;99.90
10968;DHT22;5536;49.602;10.980;2023-05-24T04:01:05;10.90;99.90
10968;DHT22;5536;49.602;10.980;2023-05-24T04:03:32;10.80;99.90
10968;DHT22;5536;49.602;10.980;2023-05-24T04:05:59;10.70;99.90
10968;DHT22;5536;49.602;10.980;2023-05-24T04:08:27;10.80;99.90
10968;DHT22;5536;49.602;10.980;2023-05-24T04:10:54;10.70;99.90
10968;DHT22;5536;49.602;10.980;2023-05-24T04:13:21;10.80;99.90
10968;DHT22;5536;49.602;10.980;2023-05-24T04:15:48;10.80;99.90
10968;DHT22;5536;49.602;10.980;2023-05-24T04:18:17;10.90;99.90
10968;DHT22;5536;49.602;10.980;2023-05-24T04:20:44;10.80;99.90
10968;DHT22;5536;49.602;10.980;2023-05-24T04:23:11;10.90;99.90
10968;DHT22;5536;49.602;10.980;2023-05-24T04:25:38;10.90;99.90
10968;DHT22;5536;49.602;10.980;2023-05-24T04:28:06;10.90;99.90
10968;DHT22;5536;49.602;10.980;2023-05-24T04:30:33;10.80;99.90
10968;DHT22;5536;49.602;10.980;2023-05-24T04:33:01;10.90;99.90
10968;DHT22;5536;49.602;10.980;2023-05-24T04:35:30;11.10;99.90
10968;DHT22;5536;49.602;10.980;2023-05-24T04:37:58;11.10;99.90
10968;DHT22;5536;49.602;10.980;2023-05-24T04:40:25;11.20;99.90
10968;DHT22;5536;49.602;10.980;2023-05-24T04:42:52;11.20;99.90
10968;DHT22;5536;49.602;10.980;2023-05-24T04:45:19;11.20;99.90
10968;DHT22;5536;49.602;10.980;2023-05-24T04:47:46;11.20;99.90
10968;DHT22;5536;49.602;10.980;2023-05-24T04:50:13;11.20;99.90
10968;DHT22;5536;49.602;10.980;2023-05-24T04:52:42;11.40;99.90
10968;DHT22;5536;49.602;10.980;2023-05-24T04:55:09;11.30;99.90
10968;DHT22;5536;49.602;10.980;2023-05-24T04:57:36;11.40;99.90
10968;DHT22;5536;49.602;10.980;2023-05-24T05:00:04;11.50;99.90
10968;DHT22;5536;49.602;10.980;2023-05-24T05:02:32;11.50;99.90
10968;DHT22;5536;49.602;10.980;2023-05-24T05:04:59;11.60;99.90
10968;DHT22;5536;49.602;10.980;2023-05-24T05:07:26;11.50;99.90
10968;DHT22;5536;49.602;10.980;2023-05-24T05:09:54;11.40;99.90
10968;DHT22;5536;49.602;10.980;2023-05-24T05:12:22;11.40;99.90
10968;DHT22;5536;49.602;10.980;2023-05-24T05:14:49;11.60;99.90
10968;DHT22;5536;49.602;10.980;2023-05-24T05:17:16;11.60;99.90
10968;DHT22;5536;49.602;10.980;2023-05-24T05:19:43;11.50;99.90
10968;DHT22;5536;49.602;10.980;2023-05-24T05:22:10;11.50;99.90
10968;DHT22;5536;49.602;10.980;2023-05-24T05:24:37;11.50;99.90
10968;DHT22;5536;49.602;10.980;2023-05-24T05:27:06;11.60;99.90
10968;DHT22;5536;49.602;10.980;2023-05-24T05:29:33;11.60;99.90
10968;DHT22;5536;49.602;10.980;2023-05-24T05:32:00;11.60;99.90
10968;DHT22;5536;49.602;10.980;2023-05-24T05:34:27;11.60;99.90
10968;DHT22;5536;49.602;10.980;2023-05-24T05:36:54;11.50;99.90
10968;DHT22;5536;49.602;10.980;2023-05-24T05:39:21;11.60;99.90
10968;DHT22;5536;49.602;10.980;2023-05-24T05:41:48;11.50;99.90
10968;DHT22;5536;49.602;10.980;2023-05-24T05:44:17;11.50;99.90
10968;DHT22;5536;49.602;10.980;2023-05-24T05:46:44;11.40;99.90
10968;DHT22;5536;49.602;10.980;2023-05-24T05:49:11;11.50;99.90
10968;DHT22;5536;49.602;10.980;2023-05-24T05:51:38;11.50;99.90
10968;DHT22;5536;49.602;10.980;2023-05-24T05:54:05;11.50;99.90
10968;DHT22;5536;49.602;10.980;2023-05-24T05:56:33;11.60;99.90
10968;DHT22;5536;49.602;10.980;2023-05-24T05:59:05;11.60;99.90
10968;DHT22;5536;49.602;10.980;2023-05-24T06:01:34;11.50;99.90
10968;DHT22;5536;49.602;10.980;2023-05-24T06:04:02;11.40;99.90
10968;DHT22;5536;49.602;10.980;2023-05-24T06:06:29;11.50;99.90
10968;DHT22;5536;49.602;10.980;2023-05-24T06:08:57;11.50;99.90
10968;DHT22;5536;49.602;10.980;2023-05-24T06:11:25;11.60;99.90
10968;DHT22;5536;49.602;10.980;2023-05-24T06:13:52;11.50;99.90
10968;DHT22;5536;49.602;10.980;2023-05-24T06:16:20;11.40;99.90
10968;DHT22;5536;49.602;10.980;2023-05-24T06:18:48;11.30;99.90
10968;DHT22;5536;49.602;10.980;2023-05-24T06:21:16;11.30;99.90
10968;DHT22;5536;49.602;10.980;2023-05-24T06:23:43;11.20;99.90
10968;DHT22;5536;49.602;10.980;2023-05-24T06:26:11;11.20;99.90
10968;DHT22;5536;49.602;10.980;2023-05-24T06:28:38;11.10;99.90
10968;DHT22;5536;49.602;10.980;2023-05-24T06:31:05;11.20;99.90
10968;DHT22;5536;49.602;10.980;2023-05-24T06:33:33;11.20;99.90
10968;DHT22;5536;49.602;10.980;2023-05-24T06:36:02;11.20;99.90
10968;DHT22;5536;49.602;10.980;2023-05-24T06:38:29;11.20;99.90
10968;DHT22;5536;49.602;10.980;2023-05-24T06:40:57;11.10;99.90
10968;DHT22;5536;49.602;10.980;2023-05-24T06:43:24;11.20;99.90
10968;DHT22;5536;49.602;10.980;2023-05-24T06:45:53;11.30;99.90
10968;DHT22;5536;49.602;10.980;2023-05-24T06:48:21;11.30;99.90
10968;DHT22;5536;49.602;10.980;2023-05-24T06:50:48;11.40;99.90
10968;DHT22;5536;49.602;10.980;2023-05-24T06:53:16;11.50;99.90
10968;DHT22;5536;49.602;10.980;2023-05-24T06:55:44;11.50;99.90
10968;DHT22;5536;49.602;10.980;2023-05-24T06:58:11;11.70;99.90
10968;DHT22;5536;49.602;10.980;2023-05-24T07:00:39;11.80;99.90
10968;DHT22;5536;49.602;10.980;2023-05-24T07:03:07;11.90;99.90
10968;DHT22;5536;49.602;10.980;2023-05-24T07:05:35;11.90;99.90
10968;DHT22;5536;49.602;10.980;2023-05-24T07:08:02;11.90;99.90
10968;DHT22;5536;49.602;10.980;2023-05-24T07:10:31;11.80;99.90
10968;DHT22;5536;49.602;10.980;2023-05-24T07:12:58;12.00;99.90
10968;DHT22;5536;49.602;10.980;2023-05-24T07:15:26;12.00;99.90
10968;DHT22;5536;49.602;10.980;2023-05-24T07:17:53;11.90;99.90
10968;DHT22;5536;49.602;10.980;2023-05-24T07:20:20;11.90;99.90
10968;DHT22;5536;49.602;10.980;2023-05-24T07:22:47;11.80;99.90
10968;DHT22;5536;49.602;10.980;2023-05-24T07:25:15;11.90;99.90
10968;DHT22;5536;49.602;10.980;2023-05-24T07:27:43;11.80;99.90
10968;DHT22;5536;49.602;10.980;2023-05-24T07:30:11;11.80;99.90
10968;DHT22;5536;49.602;10.980;2023-05-24T07:32:38;11.80;99.90
10968;DHT22;5536;49.602;10.980;2023-05-24T07:35:06;11.90;99.90
10968;DHT22;5536;49.602;10.980;2023-05-24T07:37:33;11.80;99.90
10968;DHT22;5536;49.602;10.980;2023-05-24T07:40:01;11.80;99.90
10968;DHT22;5536;49.602;10.980;2023-05-24T07:42:30;11.70;99.90
10968;DHT22;5536;49.602;10.980;2023-05-24T07:44:58;11.70;99.90
10968;DHT22;5536;49.602;10.980;2023-05-24T07:47:25;11.70;99.90
10968;DHT22;5536;49.602;10.980;2023-05-24T07:49:52;11.90;99.90
10968;DHT22;5536;49.602;10.980;2023-05-24T07:52:19;11.80;99.90
10968;DHT22;5536;49.602;10.980;2023-05-24T07:54:48;11.90;99.90
10968;DHT22;5536;49.602;10.980;2023-05-24T07:57:15;11.70;99.90
10968;DHT22;5536;49.602;10.980;2023-05-24T07:59:42;11.60;99.90
10968;DHT22;5536;49.602;10.980;2023-05-24T08:02:11;11.40;99.90
10968;DHT22;5536;49.602;10.980;2023-05-24T08:04:39;11.50;99.90
10968;DHT22;5536;49.602;10.980;2023-05-24T08:07:06;11.60;99.90
10968;DHT22;5536;49.602;10.980;2023-05-24T08:09:34;11.60;99.90
10968;DHT22;5536;49.602;10.980;2023-05-24T08:12:03;11.70;99.90
10968;DHT22;5536;49.602;10.980;2023-05-24T08:14:31;11.60;99.90
10968;DHT22;5536;49.602;10.980;2023-05-24T08:16:58;11.60;99.90
10968;DHT22;5536;49.602;10.980;2023-05-24T08:19:27;11.80;99.90
10968;DHT22;5536;49.602;10.980;2023-05-24T08:22:00;12.00;99.90
10968;DHT22;5536;49.602;10.980;2023-05-24T08:24:29;12.10;99.90
10968;DHT22;5536;49.602;10.980;2023-05-24T08:26:57;12.10;99.90
10968;DHT22;5536;49.602;10.980;2023-05-24T08:29:24;12.10;99.90
10968;DHT22;5536;49.602;10.980;2023-05-24T08:32:08;12.10;99.90
10968;DHT22;5536;49.602;10.980;2023-05-24T08:34:37;11.90;99.90
10968;DHT22;5536;49.602;10.980;2023-05-24T08:37:04;11.90;99.90
10968;DHT22;5536;49.602;10.980;2023-05-24T08:39:31;11.90;99.90
10968;DHT22;5536;49.602;10.980;2023-05-24T08:41:58;12.10;99.90
10968;DHT22;5536;49.602;10.980;2023-05-24T08:44:27;12.10;99.90
10968;DHT22;5536;49.602;10.980;2023-05-24T08:46:57;12.10;99.90
10968;DHT22;5536;49.602;10.980;2023-05-24T08:49:25;12.10;99.90
10968;DHT22;5536;49.602;10.980;2023-05-24T08:51:55;12.10;99.90
10968;DHT22;5536;49.602;10.980;2023-05-24T08:54:22;12.10;99.90
10968;DHT22;5536;49.602;10.980;2023-05-24T08:56:50;12.00;99.90
10968;DHT22;5536;49.602;10.980;2023-05-24T08:59:17;12.10;99.90
10968;DHT22;5536;49.602;10.980;2023-05-24T09:01:47;11.90;99.90
10968;DHT22;5536;49.602;10.980;2023-05-24T09:04:19;11.90;99.90
10968;DHT22;5536;49.602;10.980;2023-05-24T09:06:47;12.00;99.90
10968;DHT22;5536;49.602;10.980;2023-05-24T09:09:17;12.00;99.90
10968;DHT22;5536;49.602;10.980;2023-05-24T09:11:46;12.20;99.90
10968;DHT22;5536;49.602;10.980;2023-05-24T09:14:15;12.30;99.90
10968;DHT22;5536;49.602;10.980;2023-05-24T09:16:43;12.30;99.90
10968;DHT22;5536;49.602;10.980;2023-05-24T09:19:11;12.50;99.90
10968;DHT22;5536;49.602;10.980;2023-05-24T09:21:38;12.60;99.90
10968;DHT22;5536;49.602;10.980;2023-05-24T09:24:07;12.70;99.90
10968;DHT22;5536;49.602;10.980;2023-05-24T09:26:36;12.80;99.90
10968;DHT22;5536;49.602;10.980;2023-05-24T09:29:06;12.80;99.90
10968;DHT22;5536;49.602;10.980;2023-05-24T09:31:33;12.80;99.90
10968;DHT22;5536;49.602;10.980;2023-05-24T09:34:01;12.90;99.90
10968;DHT22;5536;49.602;10.980;2023-05-24T09:36:31;13.10;99.90
10968;DHT22;5536;49.602;10.980;2023-05-24T09:39:05;13.10;99.90
10968;DHT22;5536;49.602;10.980;2023-05-24T09:41:36;13.20;99.90
10968;DHT22;5536;49.602;10.980;2023-05-24T09:44:04;13.30;99.90
10968;DHT22;5536;49.602;10.980;2023-05-24T09:46:35;13.40;99.90
10968;DHT22;5536;49.602;10.980;2023-05-24T09:49:03;13.40;99.90
10968;DHT22;5536;49.602;10.980;2023-05-24T09:51:36;13.60;99.90
10968;DHT22;5536;49.602;10.980;2023-05-24T09:54:04;13.90;99.90
10968;DHT22;5536;49.602;10.980;2023-05-24T09:56:33;14.10;99.90
10968;DHT22;5536;49.602;10.980;2023-05-24T09:59:06;14.20;99.90
10968;DHT22;5536;49.602;10.980;2023-05-24T10:01:34;14.40;99.90
10968;DHT22;5536;49.602;10.980;2023-05-24T10:04:02;14.00;99.90
10968;DHT22;5536;49.602;10.980;2023-05-24T10:06:32;14.10;99.90
10968;DHT22;5536;49.602;10.980;2023-05-24T10:09:03;14.00;99.90
10968;DHT22;5536;49.602;10.980;2023-05-24T10:11:35;14.00;99.90
10968;DHT22;5536;49.602;10.980;2023-05-24T10:14:04;14.10;99.90
10968;DHT22;5536;49.602;10.980;2023-05-24T10:16:33;14.40;99.90
10968;DHT22;5536;49.602;10.980;2023-05-24T10:19:00;14.80;99.90
10968;DHT22;5536;49.602;10.980;2023-05-24T10:21:30;14.60;99.90
10968;DHT22;5536;49.602;10.980;2023-05-24T10:23:58;14.70;99.90
10968;DHT22;5536;49.602;10.980;2023-05-24T10:26:30;15.00;99.90
10968;DHT22;5536;49.602;10.980;2023-05-24T10:29:03;15.00;99.90
10968;DHT22;5536;49.602;10.980;2023-05-24T10:31:36;14.80;99.90
10968;DHT22;5536;49.602;10.980;2023-05-24T10:34:04;14.80;99.90
10968;DHT22;5536;49.602;10.980;2023-05-24T10:36:32;15.00;99.90
10968;DHT22;5536;49.602;10.980;2023-05-24T10:39:00;14.90;99.90
10968;DHT22;5536;49.602;10.980;2023-05-24T10:41:28;14.60;99.90
10968;DHT22;5536;49.602;10.980;2023-05-24T10:43:56;15.00;99.90
10968;DHT22;5536;49.602;10.980;2023-05-24T10:46:23;15.10;99.90
10968;DHT22;5536;49.602;10.980;2023-05-24T10:49:02;15.00;99.90
10968;DHT22;5536;49.602;10.980;2023-05-24T10:51:33;15.50;99.90
10968;DHT22;5536;49.602;10.980;2023-05-24T10:54:15;15.90;99.90
10968;DHT22;5536;49.602;10.980;2023-05-24T10:56:47;16.10;99.90
10968;DHT22;5536;49.602;10.980;2023-05-24T10:59:33;16.30;99.90
10968;DHT22;5536;49.602;10.980;2023-05-24T11:02:03;16.30;99.90
10968;DHT22;5536;49.602;10.980;2023-05-24T11:04:38;17.00;99.90
10968;DHT22;5536;49.602;10.980;2023-05-24T11:07:08;17.00;99.90
10968;DHT22;5536;49.602;10.980;2023-05-24T11:09:37;17.50;99.90
10968;DHT22;5536;49.602;10.980;2023-05-24T11:12:14;17.80;99.90
10968;DHT22;5536;49.602;10.980;2023-05-24T11:14:46;17.70;99.90
10968;DHT22;5536;49.602;10.980;2023-05-24T11:17:14;17.80;99.90
10968;DHT22;5536;49.602;10.980;2023-05-24T11:19:48;18.00;99.90
10968;DHT22;5536;49.602;10.980;2023-05-24T11:22:15;18.60;99.90
10968;DHT22;5536;49.602;10.980;2023-05-24T11:24:43;18.80;99.90
10968;DHT22;5536;49.602;10.980;2023-05-24T11:27:12;18.90;99.90
10968;DHT22;5536;49.602;10.980;2023-05-24T11:29:40;18.70;99.90
10968;DHT22;5536;49.602;10.980;2023-05-24T11:32:07;18.50;99.90
10968;DHT22;5536;49.602;10.980;2023-05-24T11:34:34;18.50;99.90
10968;DHT22;5536;49.602;10.980;2023-05-24T11:37:03;19.10;99.90
10968;DHT22;5536;49.602;10.980;2023-05-24T11:39:31;19.30;99.90
10968;DHT22;5536;49.602;10.980;2023-05-24T11:41:59;19.70;99.90
10968;DHT22;5536;49.602;10.980;2023-05-24T11:44:31;19.30;99.90
10968;DHT22;5536;49.602;10.980;2023-05-24T11:46:58;18.90;99.90
10968;DHT22;5536;49.602;10.980;2023-05-24T11:49:26;19.00;99.90
10968;DHT22;5536;49.602;10.980;2023-05-24T11:51:54;19.30;99.90
10968;DHT22;5536;49.602;10.980;2023-05-24T11:54:23;19.70;99.90
10968;DHT22;5536;49.602;10.980;2023-05-24T11:56:52;19.30;99.90
10968;DHT22;5536;49.602;10.980;2023-05-24T11:59:22;19.50;99.90
10968;DHT22;5536;49.602;10.980;2023-05-24T12:01:55;19.10;99.90
10968;DHT22;5536;49.602;10.980;2023-05-24T12:04:23;18.50;99.90
10968;DHT22;5536;49.602;10.980;2023-05-24T12:06:50;18.10;99.90
10968;DHT22;5536;49.602;10.980;2023-05-24T12:09:17;17.80;99.90
10968;DHT22;5536;49.602;10.980;2023-05-24T12:11:48;18.60;99.90
10968;DHT22;5536;49.602;10.980;2023-05-24T12:14:16;19.20;99.90
10968;DHT22;5536;49.602;10.980;2023-05-24T12:16:45;19.10;99.90
10968;DHT22;5536;49.602;10.980;2023-05-24T12:19:15;18.90;99.90
10968;DHT22;5536;49.602;10.980;2023-05-24T12:21:42;19.30;99.90
10968;DHT22;5536;49.602;10.980;2023-05-24T12:24:10;19.00;99.90
10968;DHT22;5536;49.602;10.980;2023-05-24T12:26:41;19.00;99.90
10968;DHT22;5536;49.602;10.980;2023-05-24T12:29:11;19.90;99.90
10968;DHT22;5536;49.602;10.980;2023-05-24T12:31:42;20.70;99.90
10968;DHT22;5536;49.602;10.980;2023-05-24T12:34:11;21.00;99.90
10968;DHT22;5536;49.602;10.980;2023-05-24T12:36:38;20.20;99.90
10968;DHT22;5536;49.602;10.980;2023-05-24T12:39:18;19.80;99.90
10968;DHT22;5536;49.602;10.980;2023-05-24T12:41:50;20.50;99.90
10968;DHT22;5536;49.602;10.980;2023-05-24T12:44:22;21.00;99.90
10968;DHT22;5536;49.602;10.980;2023-05-24T12:46:51;22.00;99.90
10968;DHT22;5536;49.602;10.980;2023-05-24T12:49:19;21.70;99.90
10968;DHT22;5536;49.602;10.980;2023-05-24T12:51:46;21.60;99.90
10968;DHT22;5536;49.602;10.980;2023-05-24T12:54:13;22.00;99.90
10968;DHT22;5536;49.602;10.980;2023-05-24T12:56:40;22.20;99.90
10968;DHT22;5536;49.602;10.980;2023-05-24T12:59:07;22.50;99.90
10968;DHT22;5536;49.602;10.980;2023-05-24T13:01:36;23.00;99.90
10968;DHT22;5536;49.602;10.980;2023-05-24T13:04:03;23.20;99.90
10968;DHT22;5536;49.602;10.980;2023-05-24T13:06:30;23.20;99.90
10968;DHT22;5536;49.602;10.980;2023-05-24T13:08:57;23.30;99.90
10968;DHT22;5536;49.602;10.980;2023-05-24T13:11:24;23.30;99.90
10968;DHT22;5536;49.602;10.980;2023-05-24T13:13:52;22.90;99.90
10968;DHT22;5536;49.602;10.980;2023-05-24T13:16:19;22.30;99.90
10968;DHT22;5536;49.602;10.980;2023-05-24T13:18:49;22.70;99.90
10968;DHT22;5536;49.602;10.980;2023-05-24T13:21:16;23.50;99.90
10968;DHT22;5536;49.602;10.980;2023-05-24T13:23:44;23.90;99.90
10968;DHT22;5536;49.602;10.980;2023-05-24T13:26:11;23.90;99.90
10968;DHT22;5536;49.602;10.980;2023-05-24T13:28:38;23.70;99.90
10968;DHT22;5536;49.602;10.980;2023-05-24T13:31:07;24.80;99.90
10968;DHT22;5536;49.602;10.980;2023-05-24T13:33:34;24.10;99.90
10968;DHT22;5536;49.602;10.980;2023-05-24T13:36:03;23.80;99.90
10968;DHT22;5536;49.602;10.980;2023-05-24T13:38:31;22.60;99.90
10968;DHT22;5536;49.602;10.980;2023-05-24T13:40:58;21.30;99.90
10968;DHT22;5536;49.602;10.980;2023-05-24T13:43:25;21.20;99.90
10968;DHT22;5536;49.602;10.980;2023-05-24T13:45:53;20.90;99.90
10968;DHT22;5536;49.602;10.980;2023-05-24T13:48:20;21.00;99.90
10968;DHT22;5536;49.602;10.980;2023-05-24T13:50:47;21.20;99.90
10968;DHT22;5536;49.602;10.980;2023-05-24T13:53:16;21.60;99.90
10968;DHT22;5536;49.602;10.980;2023-05-24T13:55:43;21.80;99.90
10968;DHT22;5536;49.602;10.980;2023-05-24T13:58:10;21.50;99.90
10968;DHT22;5536;49.602;10.980;2023-05-24T14:00:37;20.40;99.90
10968;DHT22;5536;49.602;10.980;2023-05-24T14:03:04;19.70;99.90
10968;DHT22;5536;49.602;10.980;2023-05-24T14:05:31;19.60;99.90
10968;DHT22;5536;49.602;10.980;2023-05-24T14:07:59;19.80;99.90
10968;DHT22;5536;49.602;10.980;2023-05-24T14:10:33;20.00;99.90
10968;DHT22;5536;49.602;10.980;2023-05-24T14:13:01;19.60;99.90
10968;DHT22;5536;49.602;10.980;2023-05-24T14:15:28;19.50;99.90
10968;DHT22;5536;49.602;10.980;2023-05-24T14:17:55;19.20;99.90
10968;DHT22;5536;49.602;10.980;2023-05-24T14:20:22;19.50;99.90
10968;DHT22;5536;49.602;10.980;2023-05-24T14:22:49;19.70;99.90
10968;DHT22;5536;49.602;10.980;2023-05-24T14:25:17;19.80;99.90
10968;DHT22;5536;49.602;10.980;2023-05-24T14:27:45;19.60;99.90
10968;DHT22;5536;49.602;10.980;2023-05-24T14:30:13;19.60;99.90
10968;DHT22;5536;49.602;10.980;2023-05-24T14:32:40;20.00;99.90
10968;DHT22;5536;49.602;10.980;2023-05-24T14:35:08;20.40;99.90
10968;DHT22;5536;49.602;10.980;2023-05-24T14:37:35;21.30;99.90
10968;DHT22;5536;49.602;10.980;2023-05-24T14:40:05;21.80;99.90
10968;DHT22;5536;49.602;10.980;2023-05-24T14:42:32;21.70;99.90
10968;DHT22;5536;49.602;10.980;2023-05-24T14:45:01;21.20;99.90
10968;DHT22;5536;49.602;10.980;2023-05-24T14:47:28;21.50;99.90
10968;DHT22;5536;49.602;10.980;2023-05-24T14:49:55;21.80;99.90
10968;DHT22;5536;49.602;10.980;2023-05-24T14:52:22;21.50;99.90
10968;DHT22;5536;49.602;10.980;2023-05-24T14:54:49;21.00;99.90
10968;DHT22;5536;49.602;10.980;2023-05-24T14:57:16;20.70;99.90
10968;DHT22;5536;49.602;10.980;2023-05-24T14:59:43;20.70;99.90
10968;DHT22;5536;49.602;10.980;2023-05-24T15:02:12;21.10;99.90
10968;DHT22;5536;49.602;10.980;2023-05-24T15:04:39;20.80;99.90
10968;DHT22;5536;49.602;10.980;2023-05-24T15:07:06;20.80;99.90
10968;DHT22;5536;49.602;10.980;2023-05-24T15:09:33;20.90;99.90
10968;DHT22;5536;49.602;10.980;2023-05-24T15:12:00;20.70;99.90
10968;DHT22;5536;49.602;10.980;2023-05-24T15:14:29;20.80;99.90
10968;DHT22;5536;49.602;10.980;2023-05-24T15:16:56;20.30;99.90
10968;DHT22;5536;49.602;10.980;2023-05-24T15:19:25;19.70;99.90
10968;DHT22;5536;49.602;10.980;2023-05-24T15:21:52;19.70;99.90
10968;DHT22;5536;49.602;10.980;2023-05-24T15:24:19;19.50;99.90
10968;DHT22;5536;49.602;10.980;2023-05-24T15:26:46;19.60;99.90
10968;DHT22;5536;49.602;10.980;2023-05-24T15:29:13;19.00;99.90
10968;DHT22;5536;49.602;10.980;2023-05-24T15:31:41;19.00;99.90
10968;DHT22;5536;49.602;10.980;2023-05-24T15:34:08;18.90;99.90
10968;DHT22;5536;49.602;10.980;2023-05-24T15:36:36;18.60;99.90